Time;durP1;ratioP1;P1;durP2;ratioP2;P2;SDS_P1;SDS_P2;PMS_P1;PMS_P2;Temp;Humidity;BMP_temperature;BMP_pressure;BME280_temperature;BME280_humidity;BME280_pressure;Samples;Min_cycle;Max_cycle;Signal;HPM_P1;HPM_P2
2022/01/11 00:01:01;;;;;;;22.67;15.97;;;8.40;99.90;;;9.18;50.15;102647.19;4887568;28;97993;-52
2022/01/11 00:03:26;;;;;;;22.23;16.20;;;8.30;99.90;;;8.96;51.48;102653.28;4892600;28;97359;-52
2022/01/11 00:06:00;;;;;;;22.40;16.27;;;8.00;99.90;;;8.77;51.46;102655.00;4890121;28;99967;-47
2022/01/11 00:08:32;;;;;;;24.30;17.20;;;7.80;99.90;;;8.74;54.76;102656.75;4883904;28;100117;-51
2022/01/11 00:11:05;;;;;;;25.23;17.17;;;7.70;99.90;;;8.49;52.38;102651.38;4890373;28;98822;-51
2022/01/11 00:13:37;;;;;;;22.93;16.33;;;7.50;99.90;;;8.26;54.11;102653.00;4883138;28;104791;-50
2022/01/11 00:16:05;;;;;;;21.03;16.10;;;7.40;99.90;;;8.25;55.79;102667.00;4892706;28;97482;-49
2022/01/11 00:18:31;;;;;;;23.00;16.57;;;7.30;99.90;;;8.01;53.33;102655.47;4904025;28;97168;-50
2022/01/11 00:20:57;;;;;;;25.43;16.90;;;7.10;99.90;;;7.95;54.71;102647.50;4887694;28;97366;-49
2022/01/11 00:25:51;;;;;;;16.30;12.53;;;7.00;99.90;;;8.28;60.26;102656.50;4892063;28;97638;-52
2022/01/11 00:28:20;;;;;;;20.23;14.10;;;7.20;99.90;;;8.67;58.53;102661.09;4883447;28;96945;-52
2022/01/11 00:30:47;;;;;;;19.47;14.23;;;7.70;99.90;;;8.77;54.83;102656.75;4894628;28;97429;-47
2022/01/11 00:33:19;;;;;;;20.47;14.67;;;7.70;99.90;;;8.86;55.29;102662.06;4885203;28;99334;-51
2022/01/11 00:35:56;;;;;;;13.33;10.47;;;7.80;99.90;;;9.10;58.00;102653.31;4886749;28;100197;-54
2022/01/11 00:38:22;;;;;;;13.90;10.63;;;7.90;99.90;;;9.41;56.47;102651.63;4883828;28;98113;-52
2022/01/11 00:40:52;;;;;;;21.97;14.60;;;8.30;99.90;;;9.34;50.57;102657.75;4889547;28;98237;-48
2022/01/11 00:43:22;;;;;;;20.43;15.33;;;8.30;99.90;;;9.28;53.49;102655.13;4902252;28;97992;-47
2022/01/11 00:45:48;;;;;;;20.57;15.43;;;8.10;99.90;;;9.19;55.63;102655.97;4902583;28;98196;-48
2022/01/11 00:48:15;;;;;;;18.23;13.77;;;8.00;99.90;;;9.46;56.64;102655.13;4885715;28;97195;-51
2022/01/11 00:50:41;;;;;;;16.90;12.20;;;8.30;99.90;;;9.72;55.24;102653.38;4887188;28;97103;-47
2022/01/11 00:53:09;;;;;;;18.33;12.97;;;8.60;99.90;;;9.99;53.72;102654.25;4902886;28;97599;-49
2022/01/11 00:55:35;;;;;;;10.03;8.13;;;9.00;99.90;;;10.28;54.82;102665.66;4893768;28;98030;-51
2022/01/11 00:58:02;;;;;;;18.13;13.30;;;9.30;99.90;;;10.27;52.44;102663.88;4900145;28;97235;-49
2022/01/11 01:00:31;;;;;;;19.53;14.03;;;9.30;99.90;;;10.27;47.23;102661.25;4888820;28;97193;-49
2022/01/11 01:02:56;;;;;;;17.50;12.67;;;9.30;98.90;;;10.07;53.35;102671.78;4885947;28;99955;-54
2022/01/11 01:05:23;;;;;;;20.17;14.47;;;8.90;99.90;;;9.97;49.59;102669.16;4884380;28;101313;-52
2022/01/11 01:07:50;;;;;;;22.47;15.07;;;8.80;99.90;;;9.67;51.47;102665.66;4887299;28;99043;-48
2022/01/11 01:10:26;;;;;;;16.70;12.57;;;8.60;99.90;;;9.81;53.01;102669.19;4886222;28;97122;-45
2022/01/11 01:12:53;;;;;;;23.27;15.03;;;8.60;99.90;;;9.70;52.71;102676.22;4889726;28;99894;-54
2022/01/11 01:15:21;;;;;;;20.37;14.67;;;8.50;99.90;;;9.74;53.13;102666.56;4899927;28;99440;-54
2022/01/11 01:17:47;;;;;;;21.27;16.07;;;8.50;99.90;;;9.41;49.52;102670.94;4889268;28;97435;-53
2022/01/11 01:20:13;;;;;;;20.47;14.13;;;8.30;99.90;;;9.39;55.18;102674.44;4883835;28;97469;-46
2022/01/11 01:22:39;;;;;;;16.90;12.13;;;8.10;99.90;;;9.49;55.79;102671.81;4887071;28;97670;-53
2022/01/11 01:25:07;;;;;;;17.23;12.67;;;8.30;99.90;;;9.62;54.79;102672.72;4888442;28;98091;-46
2022/01/11 01:27:33;;;;;;;19.60;14.43;;;8.40;99.90;;;9.73;54.57;102655.16;4885614;28;97474;-54
2022/01/11 01:29:59;;;;;;;9.13;7.63;;;8.50;99.90;;;9.96;55.06;102672.69;4886005;28;97370;-54
2022/01/11 01:32:25;;;;;;;18.17;13.77;;;8.80;99.90;;;10.07;50.15;102676.19;4892034;28;102826;-51
2022/01/11 01:34:52;;;;;;;20.87;14.23;;;9.10;99.90;;;10.31;52.12;102686.72;4889079;28;99601;-49
2022/01/11 01:37:18;;;;;;;13.40;10.27;;;9.30;99.90;;;10.39;53.77;102687.56;4879120;28;96988;-49
2022/01/11 01:39:45;;;;;;;19.60;14.07;;;9.30;99.90;;;10.37;50.44;102686.72;4881208;28;97513;-50
2022/01/11 01:42:13;;;;;;;16.80;11.80;;;9.20;99.30;;;10.39;53.63;102689.34;4888712;28;111295;-52
2022/01/11 01:44:42;;;;;;;19.50;14.70;;;9.10;99.90;;;10.30;52.55;102695.53;4888569;28;98140;-49
2022/01/11 01:47:08;;;;;;;16.93;12.43;;;9.00;99.90;;;10.38;53.75;102699.00;4880472;28;99838;-49
2022/01/11 01:49:37;;;;;;;18.77;12.83;;;9.10;99.90;;;10.25;52.73;102689.38;4884731;28;97225;-49
2022/01/11 01:52:04;;;;;;;20.17;14.30;;;9.00;99.90;;;10.12;52.58;102695.50;4881028;28;100817;-52
2022/01/11 01:54:31;;;;;;;19.23;12.57;;;8.80;99.90;;;10.14;54.08;102692.00;4883241;28;97429;-51
2022/01/11 01:56:56;;;;;;;20.60;14.93;;;8.80;99.90;;;10.10;51.67;102703.44;4881444;28;97593;-56
2022/01/11 01:59:23;;;;;;;17.67;13.10;;;8.80;99.90;;;10.10;52.92;102702.56;4893648;28;98284;-53
2022/01/11 02:01:49;;;;;;;19.77;13.70;;;8.80;99.90;;;10.00;53.98;102698.19;4895070;28;96972;-51
2022/01/11 02:04:18;;;;;;;20.73;13.80;;;8.60;99.90;;;9.87;53.77;102704.34;4924257;28;97006;-50
2022/01/11 02:06:46;;;;;;;11.90;9.63;;;8.50;99.90;;;9.97;55.34;102711.34;4900012;28;97006;-47
2022/01/11 02:09:17;;;;;;;24.00;15.80;;;8.60;99.90;;;9.88;53.69;102706.09;4898039;28;97995;-46
2022/01/11 02:11:46;;;;;;;21.97;15.47;;;8.60;99.90;;;9.88;52.86;102714.88;4904805;28;97265;-52
2022/01/11 02:14:12;;;;;;;21.57;16.63;;;8.60;99.90;;;9.77;51.29;102714.00;4930397;28;98952;-54
2022/01/11 02:16:38;;;;;;;22.33;16.17;;;8.50;99.90;;;9.60;52.13;102719.25;4908677;28;96895;-51
2022/01/11 02:19:04;;;;;;;23.47;16.03;;;8.30;99.90;;;9.42;52.19;102721.88;4905593;28;97004;-54
2022/01/11 02:21:30;;;;;;;24.00;16.53;;;8.20;99.90;;;9.13;52.50;102725.31;4916408;28;99829;-45
2022/01/11 02:24:00;;;;;;;23.40;16.60;;;8.00;99.90;;;9.18;52.92;102728.84;4902926;28;96626;-46
2022/01/11 02:26:26;;;;;;;24.97;16.57;;;7.90;99.90;;;8.93;53.22;102717.34;4906347;28;97225;-48
2022/01/11 02:28:53;;;;;;;21.00;15.87;;;7.80;99.90;;;8.62;52.48;102725.97;4922241;28;97303;-52
2022/01/11 02:31:20;;;;;;;21.10;15.43;;;7.60;99.90;;;8.42;52.08;102728.50;4903231;28;98395;-52
2022/01/11 02:33:54;;;;;;;21.17;15.97;;;7.50;99.90;;;8.37;54.69;102735.47;4909831;28;104988;-48
2022/01/11 02:36:29;;;;;;;20.53;15.50;;;7.40;99.90;;;8.32;54.68;102731.91;4909646;28;97961;-49
2022/01/11 02:38:56;;;;;;;19.23;14.90;;;7.30;99.90;;;8.31;55.10;102719.63;4915734;28;97284;-52
2022/01/11 02:41:25;;;;;;;22.73;16.37;;;7.30;99.90;;;8.26;54.99;102727.50;4926932;28;100217;-49
2022/01/11 02:43:51;;;;;;;22.47;16.00;;;7.30;99.90;;;8.26;57.06;102739.75;4918233;28;99068;-47
2022/01/11 02:46:21;;;;;;;21.20;15.40;;;7.20;99.90;;;8.26;57.52;102731.88;4910471;28;97052;-48
2022/01/11 02:48:50;;;;;;;23.83;16.80;;;7.30;99.90;;;8.32;54.94;102731.91;4918965;28;98372;-45
2022/01/11 02:51:17;;;;;;;20.43;14.67;;;7.30;99.90;;;8.27;57.53;102731.00;4916282;28;98493;-48
2022/01/11 02:53:52;;;;;;;20.97;15.10;;;7.20;99.90;;;8.12;53.57;102744.03;4912051;28;99201;-45
2022/01/11 02:56:19;;;;;;;22.80;16.10;;;7.20;99.90;;;8.20;54.75;102731.81;4910027;28;97485;-49
2022/01/11 02:58:46;;;;;;;21.80;15.33;;;7.30;99.90;;;8.24;54.44;102738.84;4908687;28;96888;-49
2022/01/11 03:01:12;;;;;;;23.87;17.13;;;7.30;99.90;;;8.25;55.80;102735.38;4904739;28;98841;-52
2022/01/11 03:03:38;;;;;;;26.97;17.67;;;7.20;99.90;;;8.12;54.37;102739.66;4911528;28;98414;-46
2022/01/11 03:06:06;;;;;;;23.53;17.60;;;7.20;99.90;;;8.14;56.53;102742.28;4911164;28;97170;-48
2022/01/11 03:08:36;;;;;;;11.87;8.67;;;7.10;99.90;;;8.27;59.38;102741.53;4924351;28;97123;-51
2022/01/11 03:11:05;;;;;;;20.20;15.33;;;7.20;99.90;;;7.99;53.62;102743.06;4916121;28;99177;-48
2022/01/11 03:13:31;;;;;;;21.90;16.00;;;7.20;99.90;;;7.96;57.64;102749.19;4926576;28;97709;-50
2022/01/11 03:15:57;;;;;;;23.57;16.23;;;7.10;99.90;;;7.83;55.14;102752.56;4906016;28;97304;-47
2022/01/11 03:18:23;;;;;;;23.80;16.53;;;7.00;99.90;;;7.89;55.97;102749.97;4907977;28;97531;-46
2022/01/11 03:20:51;;;;;;;21.90;16.57;;;7.00;99.90;;;7.97;57.37;102750.94;4921408;28;99558;-48
2022/01/11 03:23:18;;;;;;;23.63;15.63;;;7.00;99.90;;;7.94;58.68;102745.63;4905734;28;98691;-48
2022/01/11 03:25:46;;;;;;;23.07;15.40;;;7.00;99.90;;;7.97;54.17;102745.69;4912447;28;97412;-47
2022/01/11 03:28:12;;;;;;;20.43;14.77;;;7.10;99.90;;;7.89;56.28;102747.34;4907648;28;97920;-47
2022/01/11 03:30:38;;;;;;;24.47;16.73;;;7.00;99.90;;;7.82;56.34;102756.06;4917846;28;97915;-47
2022/01/11 03:33:08;;;;;;;21.53;15.50;;;6.90;99.90;;;7.71;56.28;102765.59;4910307;28;98445;-51
2022/01/11 03:35:36;;;;;;;23.00;15.43;;;6.90;99.90;;;7.60;56.98;102759.34;4908638;28;96955;-49
2022/01/11 03:38:05;;;;;;;24.47;16.53;;;6.80;99.90;;;7.57;54.38;102760.19;4903700;28;97412;-50
2022/01/11 03:40:31;;;;;;;24.27;16.43;;;6.80;99.90;;;7.65;55.74;102769.00;4917750;28;100980;-49
2022/01/11 03:42:58;;;;;;;22.20;16.07;;;6.80;99.90;;;7.68;57.96;102765.56;4915930;28;97218;-48
2022/01/11 03:45:26;;;;;;;22.63;15.67;;;6.80;99.90;;;7.65;54.84;102758.50;4906591;28;98807;-47
2022/01/11 03:47:55;;;;;;;22.43;16.40;;;6.80;99.90;;;7.57;55.63;102754.06;4912839;28;97936;-51
2022/01/11 03:50:22;;;;;;;23.20;15.50;;;6.70;99.90;;;7.58;55.78;102761.06;4908813;28;98570;-48
2022/01/11 03:52:57;;;;;;;21.13;16.13;;;6.70;99.90;;;7.67;57.50;102753.28;4894205;28;100571;-51
2022/01/11 03:55:42;;;;;;;21.43;15.53;;;6.80;99.90;;;7.43;54.08;102762.66;4908806;28;99442;-48
2022/01/11 03:58:08;;;;;;;22.33;15.63;;;6.70;99.90;;;7.46;56.73;102767.06;4908844;28;97186;-46
2022/01/11 04:00:34;;;;;;;23.63;16.60;;;6.60;99.90;;;7.51;55.13;102769.72;4913129;28;97441;-49
2022/01/11 04:03:00;;;;;;;22.07;15.33;;;6.70;99.90;;;7.48;56.99;102773.22;4934577;28;98563;-45
2022/01/11 04:05:26;;;;;;;20.77;15.37;;;6.60;99.90;;;7.34;54.44;102772.19;4913108;28;97310;-48
2022/01/11 04:07:52;;;;;;;22.77;15.37;;;6.60;99.90;;;7.47;56.74;102774.97;4929792;28;97511;-48
2022/01/11 04:10:17;;;;;;;22.10;15.80;;;6.60;99.90;;;7.65;55.57;102778.63;4910655;28;97740;-47
2022/01/11 04:12:47;;;;;;;18.20;12.73;;;6.80;99.90;;;8.05;59.69;102780.78;4916205;28;97211;-46
2022/01/11 04:15:13;;;;;;;12.90;10.23;;;7.10;99.90;;;8.52;59.22;102771.50;4905760;28;98913;-49
2022/01/11 04:17:39;;;;;;;15.93;11.57;;;7.50;99.90;;;8.75;57.76;102779.53;4919932;28;99705;-49
2022/01/11 04:20:06;;;;;;;20.17;15.20;;;7.70;99.90;;;8.94;55.41;102776.13;4915459;28;97836;-47
2022/01/11 04:22:32;;;;;;;19.83;14.80;;;7.80;99.90;;;8.91;52.76;102770.84;4914656;28;97391;-46
2022/01/11 04:24:57;;;;;;;21.50;15.37;;;7.80;99.90;;;8.95;54.30;102773.50;4936084;28;97412;-48
2022/01/11 04:27:23;;;;;;;19.53;14.77;;;7.70;99.90;;;8.87;53.25;102769.97;4915153;28;98270;-48
2022/01/11 04:29:49;;;;;;;19.23;14.63;;;7.60;99.90;;;8.84;51.98;102769.97;4897281;28;96762;-50
2022/01/11 04:32:15;;;;;;;22.80;15.87;;;7.60;99.90;;;8.51;50.80;102773.25;4911898;28;104385;-47
2022/01/11 04:34:41;;;;;;;22.40;15.70;;;7.50;99.90;;;8.34;52.21;102773.16;4916902;28;96782;-49
2022/01/11 04:37:07;;;;;;;22.70;16.03;;;7.30;99.90;;;8.09;53.14;102780.78;4909843;28;97121;-48
2022/01/11 04:39:33;;;;;;;21.83;15.23;;;7.20;99.90;;;7.85;53.05;102781.47;4923160;28;100165;-51
2022/01/11 04:41:59;;;;;;;22.13;15.97;;;7.00;99.90;;;7.74;53.38;102778.75;4914075;28;99020;-56
2022/01/11 04:44:25;;;;;;;24.93;16.17;;;6.90;99.90;;;7.54;53.23;102785.56;4912492;28;98508;-49
2022/01/11 04:46:51;;;;;;;24.87;16.23;;;6.80;99.90;;;7.54;55.67;102780.31;4916052;28;97288;-48
2022/01/11 04:49:17;;;;;;;21.03;14.87;;;6.70;99.90;;;7.57;56.63;102778.59;4938938;28;97512;-47
2022/01/11 04:51:43;;;;;;;20.30;13.80;;;6.70;99.90;;;7.84;58.96;102777.97;4910045;28;99392;-51
2022/01/11 04:54:09;;;;;;;12.77;8.60;;;6.80;99.90;;;8.05;59.90;102780.78;4898923;28;97280;-52
2022/01/11 04:56:36;;;;;;;13.20;10.30;;;7.00;99.90;;;8.28;57.82;102783.59;4916737;28;97283;-48
2022/01/11 04:59:02;;;;;;;22.17;14.93;;;7.20;99.90;;;8.29;55.44;102789.75;4912168;28;97665;-47
2022/01/11 05:01:31;;;;;;;23.97;16.20;;;7.20;99.90;;;8.05;53.08;102785.16;4912484;28;97636;-48
2022/01/11 05:03:57;;;;;;;23.30;16.17;;;7.10;99.90;;;7.87;53.41;102791.13;4932899;28;96870;-46
2022/01/11 05:06:23;;;;;;;21.67;16.30;;;7.00;99.90;;;8.01;55.62;102784.25;4924721;28;98188;-51
2022/01/11 05:08:49;;;;;;;21.93;15.80;;;7.00;99.90;;;7.97;53.41;102784.22;4919885;28;100131;-47
2022/01/11 05:11:16;;;;;;;24.83;17.63;;;7.00;99.90;;;7.88;54.15;102782.38;4904411;28;97184;-48
2022/01/11 05:13:42;;;;;;;21.20;15.60;;;6.90;99.90;;;7.87;56.83;102790.25;4912032;28;96886;-49
2022/01/11 05:16:09;;;;;;;23.17;16.60;;;6.80;99.90;;;7.98;58.19;102789.50;4905795;28;97105;-47
2022/01/11 05:18:37;;;;;;;22.20;15.73;;;6.90;99.90;;;7.73;53.67;102782.25;4911438;28;97568;-46
2022/01/11 05:21:04;;;;;;;24.07;16.63;;;6.90;99.90;;;7.78;54.58;102780.53;4906589;28;97401;-46
2022/01/11 05:23:30;;;;;;;21.83;16.27;;;6.80;99.90;;;7.85;58.19;102794.63;4923770;28;97285;-46
2022/01/11 05:25:56;;;;;;;21.40;16.07;;;6.80;99.90;;;7.94;57.20;102803.44;4914978;28;96861;-49
2022/01/11 05:28:23;;;;;;;20.77;15.33;;;6.90;99.90;;;8.17;58.51;102795.78;4892395;28;97639;-50
2022/01/11 05:30:49;;;;;;;20.60;15.33;;;7.10;99.90;;;8.15;55.40;102796.63;4909496;28;97064;-49
2022/01/11 05:33:14;;;;;;;21.70;15.80;;;7.10;99.90;;;8.09;56.26;102796.56;4909041;28;97739;-49
2022/01/11 05:35:40;;;;;;;20.37;15.13;;;7.00;99.90;;;8.28;58.55;102803.75;4916651;28;96999;-47
2022/01/11 05:38:06;;;;;;;22.70;15.60;;;7.20;99.90;;;8.39;54.59;102795.97;4911202;28;100313;-47
2022/01/11 05:40:32;;;;;;;21.30;15.90;;;7.30;99.90;;;8.55;57.90;102806.63;4929086;28;97259;-51
2022/01/11 05:42:58;;;;;;;18.83;14.70;;;7.40;99.90;;;8.63;55.52;102811.91;4900029;28;97323;-55
2022/01/11 05:45:24;;;;;;;18.73;15.40;;;7.50;99.90;;;8.72;56.37;102816.38;4910959;28;97438;-51
2022/01/11 05:47:52;;;;;;;18.03;14.47;;;7.50;99.90;;;8.92;56.26;102818.25;4911003;28;97227;-49
2022/01/11 05:50:20;;;;;;;20.33;15.10;;;7.70;99.90;;;8.92;51.91;102820.88;4911672;28;97882;-46
2022/01/11 05:52:49;;;;;;;21.50;16.10;;;7.80;99.90;;;8.70;54.09;102823.38;4904894;28;98462;-46
2022/01/11 05:55:15;;;;;;;20.37;15.57;;;7.50;99.90;;;9.01;55.23;102827.94;4908543;28;97905;-49
2022/01/11 05:57:42;;;;;;;20.93;16.17;;;7.80;99.90;;;8.72;53.62;102834.78;4909515;28;100508;-47
2022/01/11 06:00:14;;;;;;;21.57;16.73;;;7.60;99.90;;;8.50;51.95;102831.13;4919184;28;104188;-46
2022/01/11 06:02:42;;;;;;;22.60;16.47;;;7.40;99.90;;;8.40;54.33;102827.56;4908737;28;96883;-50
2022/01/11 06:05:09;;;;;;;22.13;16.63;;;7.30;99.90;;;8.47;54.77;102829.34;4910771;28;97068;-52
2022/01/11 06:07:34;;;;;;;20.03;15.03;;;7.30;99.90;;;8.67;57.59;102833.88;4914437;28;97574;-46
2022/01/11 06:10:00;;;;;;;21.37;14.97;;;7.50;99.90;;;8.65;55.11;102829.47;4920971;28;96962;-53
2022/01/11 06:12:26;;;;;;;20.03;14.53;;;7.50;99.90;;;8.82;55.52;102837.47;4915439;28;97269;-49
2022/01/11 06:14:52;;;;;;;18.07;13.27;;;7.60;99.90;;;9.00;55.97;102828.81;4920465;28;103247;-47
2022/01/11 06:17:18;;;;;;;20.23;14.97;;;7.80;99.90;;;9.05;55.29;102832.34;4910143;28;98099;-48
2022/01/11 06:19:43;;;;;;;18.73;12.87;;;7.80;99.90;;;9.19;55.46;102835.94;4921033;28;104608;-51
2022/01/11 06:22:09;;;;;;;17.57;13.73;;;7.90;99.90;;;9.22;55.04;102838.56;4908472;28;98398;-50
2022/01/11 06:24:35;;;;;;;18.87;15.77;;;7.90;99.90;;;9.32;55.34;102836.00;4927127;28;97272;-49
2022/01/11 06:27:01;;;;;;;23.17;17.53;;;8.00;99.90;;;9.53;54.47;102836.94;4926574;28;99187;-51
2022/01/11 06:29:27;;;;;;;16.77;12.87;;;8.30;99.90;;;9.63;54.78;102840.47;4897851;28;99555;-46
2022/01/11 06:31:52;;;;;;;14.77;10.73;;;8.30;99.90;;;9.75;55.00;102837.88;4930459;28;97459;-48
2022/01/11 06:34:18;;;;;;;14.77;11.47;;;8.50;99.90;;;9.87;54.01;102851.97;4912558;28;110815;-48
2022/01/11 06:36:44;;;;;;;9.80;7.40;;;8.70;99.90;;;10.06;54.23;102840.56;4907740;28;98802;-46
2022/01/11 06:39:10;;;;;;;15.80;12.90;;;8.80;99.90;;;10.21;52.50;102845.88;4912321;28;97272;-48
2022/01/11 06:41:35;;;;;;;18.73;15.07;;;9.00;99.90;;;10.08;49.21;102854.63;4924219;28;117172;-48
2022/01/11 06:44:01;;;;;;;18.07;14.23;;;8.90;99.10;;;10.18;52.62;102845.84;4911508;28;97684;-47
2022/01/11 06:46:28;;;;;;;15.33;12.40;;;8.80;99.90;;;10.28;53.12;102842.38;4920035;28;100661;-47
2022/01/11 06:48:57;;;;;;;12.80;10.27;;;8.90;99.90;;;10.38;52.82;102852.03;4911863;28;99651;-46
2022/01/11 06:51:23;;;;;;;20.63;15.87;;;9.10;99.90;;;10.13;48.55;102858.19;4908011;28;98784;-48
2022/01/11 06:53:49;;;;;;;18.70;14.93;;;8.90;98.60;;;9.73;50.94;102860.72;4915715;28;96920;-48
2022/01/11 06:56:16;;;;;;;18.37;15.23;;;8.50;99.20;;;9.46;49.41;102861.50;4932618;28;97105;-48
2022/01/11 06:58:42;;;;;;;20.13;15.77;;;8.20;99.20;;;9.44;53.47;102859.75;4908993;28;97290;-49
2022/01/11 07:01:08;;;;;;;23.27;16.47;;;8.00;99.90;;;9.00;48.82;102860.41;4914310;28;97522;-48
2022/01/11 07:03:34;;;;;;;17.23;13.97;;;7.80;99.90;;;8.77;51.17;102864.66;4914585;28;98621;-50
2022/01/11 07:06:00;;;;;;;19.90;15.70;;;7.60;99.90;;;8.58;51.73;102867.16;4917295;28;99573;-51
2022/01/11 07:08:26;;;;;;;20.73;15.90;;;7.40;99.90;;;8.35;51.77;102869.59;4910079;28;97467;-50
2022/01/11 07:10:52;;;;;;;18.50;14.37;;;7.20;99.90;;;8.35;53.69;102868.69;4932539;28;97506;-48
2022/01/11 07:13:18;;;;;;;22.10;15.73;;;7.20;99.90;;;8.12;52.33;102864.97;4904252;28;102068;-48
2022/01/11 07:15:44;;;;;;;23.07;16.80;;;7.10;99.90;;;8.04;54.87;102868.38;4915921;28;100786;-47
2022/01/11 07:18:11;;;;;;;19.03;15.00;;;7.00;99.90;;;8.18;56.65;102875.53;4907346;28;97508;-50
2022/01/11 07:20:41;;;;;;;13.20;10.97;;;7.00;99.90;;;8.46;57.92;102880.22;4906183;28;98321;-50
2022/01/11 07:23:06;;;;;;;14.87;10.60;;;7.30;99.90;;;8.56;57.39;102873.28;4895950;28;99033;-49
2022/01/11 07:25:33;;;;;;;11.57;9.17;;;7.40;99.90;;;8.77;57.45;102877.81;4892027;28;103818;-47
2022/01/11 07:28:00;;;;;;;12.27;10.13;;;7.50;99.90;;;8.94;56.90;102876.16;4889661;28;97976;-52
2022/01/11 07:30:26;;;;;;;15.80;12.17;;;7.70;99.90;;;9.04;55.88;102888.53;4884839;28;99652;-51
2022/01/11 07:32:52;;;;;;;17.80;12.77;;;7.80;99.90;;;9.03;54.98;102885.88;4889744;28;99873;-45
2022/01/11 07:35:18;;;;;;;13.37;10.40;;;7.80;99.90;;;9.06;56.00;102892.03;4888960;28;99601;-51
2022/01/11 07:37:44;;;;;;;13.90;11.27;;;7.70;99.90;;;9.33;55.68;102887.78;4882170;28;98382;-50
2022/01/11 07:40:11;;;;;;;12.17;9.87;;;8.00;99.90;;;9.41;54.35;102891.34;4895642;28;98134;-51
2022/01/11 07:42:37;;;;;;;16.87;12.23;;;8.10;99.90;;;9.46;53.70;102892.25;4896226;28;98585;-48
2022/01/11 07:45:04;;;;;;;9.13;7.60;;;8.20;99.90;;;9.71;54.50;102895.88;4887652;28;99435;-50
2022/01/11 07:47:29;;;;;;;8.90;7.80;;;8.40;99.90;;;9.94;54.26;102904.72;4903659;28;99687;-46
2022/01/11 07:49:55;;;;;;;8.30;7.27;;;8.70;99.90;;;10.20;53.60;102896.84;4896044;28;97837;-47
2022/01/11 07:52:21;;;;;;;10.33;8.40;;;9.00;99.90;;;10.39;51.91;102910.97;4889464;28;98194;-48
2022/01/11 07:54:47;;;;;;;12.73;10.30;;;9.30;99.90;;;10.33;52.53;102906.56;4905743;28;99220;-49
2022/01/11 07:57:13;;;;;;;8.63;6.93;;;9.10;99.00;;;10.37;52.61;102915.38;4883670;28;99247;-51
2022/01/11 07:59:39;;;;;;;13.60;11.10;;;9.00;99.90;;;10.46;52.63;102906.59;4893761;28;116015;-47
2022/01/11 08:02:05;;;;;;;12.27;9.23;;;9.10;99.90;;;10.50;52.23;102913.63;4885432;28;97395;-47
2022/01/11 08:04:31;;;;;;;15.10;12.07;;;9.10;99.90;;;10.54;49.10;102910.97;4903963;28;99762;-47
2022/01/11 08:07:01;;;;;;;18.13;13.10;;;9.20;99.20;;;10.36;51.73;102911.84;4886239;28;97566;-52
2022/01/11 08:09:27;;;;;;;11.73;9.43;;;9.00;99.30;;;10.39;52.45;102916.25;4883379;28;98579;-52
2022/01/11 08:11:56;;;;;;;16.60;12.93;;;9.00;99.90;;;10.23;50.94;102918.00;4894575;28;99267;-47
2022/01/11 08:14:26;;;;;;;12.97;10.67;;;8.80;98.90;;;10.04;52.70;102914.41;4885996;28;99484;-47
2022/01/11 08:16:52;;;;;;;12.73;11.10;;;8.60;99.90;;;9.97;52.17;102922.28;4886826;28;97075;-49
2022/01/11 08:19:24;;;;;;;15.97;11.50;;;8.50;99.60;;;9.78;51.97;102922.25;4880999;28;97736;-47
2022/01/11 08:21:55;;;;;;;19.03;14.63;;;8.30;99.50;;;9.53;47.98;102925.63;4888236;28;97361;-49
2022/01/11 08:24:23;;;;;;;18.67;14.20;;;8.20;99.20;;;9.38;51.37;102921.19;4889728;28;98098;-46
2022/01/11 08:26:51;;;;;;;19.00;14.30;;;8.00;99.90;;;8.99;49.49;102923.59;4892446;28;101692;-51
2022/01/11 08:29:18;;;;;;;11.50;8.90;;;7.80;99.90;;;9.18;55.85;102923.72;4881780;28;97543;-48
2022/01/11 08:31:45;;;;;;;8.50;6.93;;;7.90;99.90;;;9.52;55.26;102926.53;4886124;28;98293;-51
2022/01/11 08:34:14;;;;;;;6.37;5.30;;;8.40;99.90;;;10.06;54.25;102927.59;4894227;28;98021;-46
2022/01/11 08:36:42;;;;;;;8.50;5.50;;;9.20;99.90;;;10.82;51.99;102924.16;4901834;28;100484;-46
2022/01/11 08:39:10;;;;;;;6.77;5.63;;;10.30;99.90;;;11.14;50.87;102918.84;4900959;28;99168;-49
2022/01/11 08:41:36;;;;;;;6.27;5.30;;;10.80;99.60;;;11.40;50.19;102926.69;4887930;28;99946;-50
2022/01/11 08:44:02;;;;;;;11.57;8.93;;;10.90;99.90;;;11.60;48.55;102925.75;4895277;28;98721;-49
2022/01/11 08:46:28;;;;;;;6.13;5.20;;;11.20;96.50;;;11.88;49.02;102930.97;4893910;28;97175;-48
2022/01/11 08:48:54;;;;;;;7.47;6.03;;;11.40;98.90;;;11.90;48.77;102931.81;4892355;28;100157;-49
2022/01/11 08:51:20;;;;;;;6.03;5.43;;;11.30;98.30;;;12.09;48.63;102925.53;4884023;28;98721;-47
2022/01/11 08:53:46;;;;;;;5.10;4.60;;;11.50;99.30;;;12.21;48.28;102936.03;4889380;28;101926;-49
2022/01/11 08:56:17;;;;;;;6.13;5.53;;;11.60;98.20;;;12.33;48.08;102939.50;4884216;28;98522;-46
2022/01/11 08:58:44;;;;;;;5.83;5.27;;;11.70;97.20;;;12.39;47.86;102942.09;4891045;28;101459;-51
2022/01/11 09:01:10;;;;;;;6.37;5.73;;;11.70;98.30;;;12.55;47.32;102943.75;4900687;28;97463;-48
2022/01/11 09:03:36;;;;;;;6.13;5.40;;;11.90;97.10;;;12.65;47.10;102942.78;4887489;28;98271;-51
2022/01/11 09:06:07;;;;;;;11.47;10.20;;;12.00;96.50;;;12.53;45.29;102937.59;4886962;28;99166;-46
2022/01/11 09:08:34;;;;;;;5.57;4.93;;;11.80;94.10;;;12.53;47.08;102948.16;4900525;28;97796;-49
2022/01/11 09:11:00;;;;;;;7.37;5.97;;;11.60;97.30;;;12.50;47.29;102949.06;4902497;28;98131;-53
2022/01/11 09:13:26;;;;;;;6.30;5.10;;;11.60;96.80;;;12.44;47.29;102950.88;4902392;28;99137;-51
2022/01/11 09:15:53;;;;;;;6.00;5.20;;;11.50;97.40;;;12.36;47.69;102950.94;4886817;28;97360;-49
2022/01/11 09:18:19;;;;;;;6.77;6.00;;;11.40;97.90;;;12.37;47.56;102946.53;4884740;28;100897;-47
2022/01/11 09:20:45;;;;;;;14.23;12.13;;;11.40;96.00;;;11.70;43.00;102953.00;4888367;28;97882;-48
2022/01/11 09:23:11;;;;;;;8.47;7.30;;;10.80;94.30;;;11.73;48.23;102952.16;4889472;28;100149;-49
2022/01/11 09:25:38;;;;;;;5.30;4.80;;;10.60;96.30;;;11.73;48.97;102953.03;4892552;28;98272;-47
2022/01/11 09:28:04;;;;;;;10.80;8.90;;;10.60;99.50;;;11.69;48.53;102963.59;4883221;28;98407;-51
2022/01/11 09:30:30;;;;;;;6.07;5.47;;;10.60;97.10;;;11.68;49.32;102953.91;4902723;28;100131;-49
2022/01/11 09:32:56;;;;;;;7.20;5.40;;;10.60;99.20;;;11.72;49.29;102955.69;4885135;28;97725;-48
2022/01/11 09:35:22;;;;;;;14.97;10.87;;;10.60;98.10;;;11.56;44.42;102950.44;4884929;28;98702;-47
2022/01/11 09:37:49;;;;;;;6.47;5.83;;;10.60;96.10;;;11.80;49.08;102949.50;4874209;28;97964;-50
2022/01/11 09:40:17;;;;;;;11.17;9.17;;;10.80;99.30;;;11.81;48.65;102955.66;4891037;28;98961;-50
2022/01/11 09:42:43;;;;;;;9.77;7.20;;;10.90;97.60;;;11.98;48.01;102963.50;4908378;28;96974;-51
2022/01/11 09:45:10;;;;;;;7.83;6.27;;;11.20;96.90;;;12.10;48.04;102959.03;4893520;28;98199;-47
2022/01/11 09:47:39;;;;;;;5.30;4.77;;;11.40;98.20;;;12.32;47.77;102956.28;4897363;28;98792;-51
2022/01/11 09:50:10;;;;;;;14.10;9.90;;;11.70;98.40;;;12.41;47.15;102958.84;4905493;28;98142;-50
2022/01/11 09:52:36;;;;;;;11.63;9.03;;;11.90;94.90;;;12.49;46.64;102960.56;4907177;28;99400;-47
2022/01/11 09:55:05;;;;;;;5.40;3.90;;;11.90;95.60;;;12.63;47.14;102955.16;4894892;28;100272;-46
2022/01/11 09:57:32;;;;;;;8.57;6.63;;;12.10;97.40;;;12.68;46.95;102961.28;4898008;28;97722;-52
2022/01/11 09:59:58;;;;;;;11.47;8.73;;;12.10;96.70;;;12.75;46.30;102957.72;4891020;28;98701;-47
2022/01/11 10:02:23;;;;;;;11.97;10.33;;;12.20;95.00;;;12.80;45.27;102960.31;4892641;28;101240;-47
2022/01/11 10:04:58;;;;;;;5.90;5.30;;;12.20;94.90;;;12.74;46.63;102963.91;4893223;28;99212;-49
2022/01/11 10:07:36;;;;;;;7.73;6.00;;;12.00;96.50;;;12.58;46.17;102962.25;4889564;28;100127;-48
2022/01/11 10:10:04;;;;;;;7.70;6.67;;;11.70;95.70;;;12.39;47.33;102965.91;4888584;28;97760;-52
2022/01/11 10:12:50;;;;;;;5.43;4.93;;;11.30;95.90;;;12.35;47.83;102959.78;4909236;28;100064;-47